Time;durP1;ratioP1;P1;durP2;ratioP2;P2;SDS_P1;SDS_P2;PMS_P1;PMS_P2;Temp;Humidity;BMP_temperature;BMP_pressure;BME280_temperature;BME280_humidity;BME280_pressure;Samples;Min_cycle;Max_cycle;Signal;HPM_P1;HPM_P2
2022/11/22 00:01:59;;;;;;;25.48;14.80;;;;;;;;;;5117104;28;20207;-65
2022/11/22 00:04:26;;;;;;;21.20;14.32;;;;;;;;;;5116633;28;20282;-65
2022/11/22 00:06:53;;;;;;;19.63;14.23;;;;;;;;;;5116475;28;20650;-65
2022/11/22 00:09:20;;;;;;;23.15;15.70;;;;;;;;;;5116805;28;20331;-65
2022/11/22 00:11:47;;;;;;;21.52;14.25;;;;;;;;;;5117275;28;20282;-65
2022/11/22 00:14:16;;;;;;;20.52;14.00;;;;;;;;;;5116342;28;20198;-65
2022/11/22 00:16:43;;;;;;;18.55;13.52;;;;;;;;;;5117138;28;20196;-65
2022/11/22 00:19:10;;;;;;;16.98;13.18;;;;;;;;;;5116516;28;20200;-65
2022/11/22 00:21:38;;;;;;;22.27;14.30;;;;;;;;;;5116296;28;20194;-66
2022/11/22 00:24:05;;;;;;;18.17;12.63;;;;;;;;;;5116389;28;20203;-65
2022/11/22 00:26:32;;;;;;;20.48;13.65;;;;;;;;;;5116555;28;20199;-64
2022/11/22 00:29:00;;;;;;;15.50;12.63;;;;;;;;;;5116387;28;20242;-65
2022/11/22 00:31:28;;;;;;;18.80;12.52;;;;;;;;;;5116458;28;20196;-65
2022/11/22 00:33:55;;;;;;;18.92;13.70;;;;;;;;;;5115978;28;20195;-66
2022/11/22 00:36:23;;;;;;;19.23;13.82;;;;;;;;;;5116005;28;20649;-66
2022/11/22 00:38:51;;;;;;;18.90;13.48;;;;;;;;;;5115893;28;20212;-66
2022/11/22 00:41:18;;;;;;;18.58;13.45;;;;;;;;;;5116166;28;20306;-65
2022/11/22 00:43:45;;;;;;;20.52;13.18;;;;;;;;;;5116096;28;20279;-66
2022/11/22 00:46:13;;;;;;;19.38;12.85;;;;;;;;;;5116154;28;20195;-65
2022/11/22 00:48:41;;;;;;;23.25;12.93;;;;;;;;;;5116303;28;20254;-65
2022/11/22 00:51:08;;;;;;;19.20;11.93;;;;;;;;;;5116047;28;20195;-65
2022/11/22 00:53:36;;;;;;;19.63;12.50;;;;;;;;;;5115708;28;20657;-65
2022/11/22 00:56:03;;;;;;;18.30;12.93;;;;;;;;;;5115929;28;20549;-65
2022/11/22 00:58:30;;;;;;;15.60;11.55;;;;;;;;;;5115972;28;20199;-65
2022/11/22 01:00:57;;;;;;;17.95;12.07;;;;;;;;;;5115881;28;20193;-65
2022/11/22 01:03:24;;;;;;;15.07;10.50;;;;;;;;;;5115815;28;20202;-65
2022/11/22 01:05:53;;;;;;;22.92;13.00;;;;;;;;;;5115888;28;20601;-65
2022/11/22 01:08:20;;;;;;;17.58;12.23;;;;;;;;;;5115256;28;20241;-66
2022/11/22 01:10:47;;;;;;;17.48;13.85;;;;;;;;;;5115825;28;20197;-66
2022/11/22 01:13:14;;;;;;;17.75;11.48;;;;;;;;;;5115885;28;20298;-66
2022/11/22 01:15:42;;;;;;;20.45;10.68;;;;;;;;;;5115661;28;20190;-66
2022/11/22 01:18:09;;;;;;;14.63;10.50;;;;;;;;;;5115617;28;20631;-66
2022/11/22 01:20:36;;;;;;;16.25;11.57;;;;;;;;;;5115481;28;20198;-66
2022/11/22 01:23:05;;;;;;;15.38;11.38;;;;;;;;;;5115588;28;20196;-65
2022/11/22 01:25:32;;;;;;;14.85;11.13;;;;;;;;;;5115304;28;20557;-66
2022/11/22 01:27:59;;;;;;;15.73;10.23;;;;;;;;;;5115274;28;20230;-66
2022/11/22 01:30:26;;;;;;;13.82;10.60;;;;;;;;;;5114897;28;20209;-66
2022/11/22 01:32:53;;;;;;;15.60;10.60;;;;;;;;;;5115234;28;20192;-66
2022/11/22 01:35:20;;;;;;;18.80;11.43;;;;;;;;;;5115107;28;20195;-66
2022/11/22 01:37:48;;;;;;;15.48;10.07;;;;;;;;;;5115472;28;20205;-65
2022/11/22 01:40:16;;;;;;;16.20;10.90;;;;;;;;;;5115276;28;20671;-66
2022/11/22 01:42:44;;;;;;;13.73;9.82;;;;;;;;;;5114999;28;20336;-65
2022/11/22 01:45:30;;;;;;;13.05;9.52;;;;;;;;;;5115122;28;20202;-65
2022/11/22 01:47:59;;;;;;;14.88;10.25;;;;;;;;;;5114529;28;20685;-65
2022/11/22 01:50:27;;;;;;;13.68;9.02;;;;;;;;;;5115356;28;20551;-65
2022/11/22 01:52:55;;;;;;;17.50;9.60;;;;;;;;;;5114879;28;20195;-65
2022/11/22 01:55:24;;;;;;;19.67;9.80;;;;;;;;;;5114975;28;20670;-66
2022/11/22 01:57:51;;;;;;;18.02;9.82;;;;;;;;;;5114833;28;20721;-65
2022/11/22 02:00:18;;;;;;;15.57;10.13;;;;;;;;;;5114650;28;20221;-66
2022/11/22 02:02:47;;;;;;;14.57;9.45;;;;;;;;;;5114646;28;20193;-66
2022/11/22 02:05:16;;;;;;;13.80;9.00;;;;;;;;;;5114571;28;20336;-66
2022/11/22 02:07:46;;;;;;;15.60;9.98;;;;;;;;;;5114545;28;20619;-66
2022/11/22 02:10:14;;;;;;;13.65;9.18;;;;;;;;;;5114651;28;20202;-66
2022/11/22 02:12:42;;;;;;;13.50;9.95;;;;;;;;;;5114013;28;20203;-66
2022/11/22 02:15:10;;;;;;;18.20;9.10;;;;;;;;;;5114046;28;20192;-66
2022/11/22 02:17:37;;;;;;;14.18;9.15;;;;;;;;;;5114360;28;20555;-66
2022/11/22 02:20:05;;;;;;;18.23;10.23;;;;;;;;;;5113629;28;20220;-67
2022/11/22 02:22:34;;;;;;;13.48;9.75;;;;;;;;;;5114219;28;20196;-66
2022/11/22 02:25:04;;;;;;;14.15;9.43;;;;;;;;;;5114447;28;20199;-66
2022/11/22 02:27:32;;;;;;;16.42;9.50;;;;;;;;;;5113670;28;20194;-66
2022/11/22 02:30:00;;;;;;;13.23;9.40;;;;;;;;;;5113909;28;20200;-65
2022/11/22 02:32:27;;;;;;;12.25;8.73;;;;;;;;;;5113995;28;20540;-66
2022/11/22 02:34:54;;;;;;;15.75;10.88;;;;;;;;;;5114127;28;20196;-65
2022/11/22 02:37:23;;;;;;;24.58;9.40;;;;;;;;;;5114052;28;20290;-65
2022/11/22 02:39:52;;;;;;;15.57;10.40;;;;;;;;;;5114849;28;20199;-65
2022/11/22 02:42:19;;;;;;;15.75;10.25;;;;;;;;;;5113704;28;20231;-65
2022/11/22 02:44:47;;;;;;;21.13;11.35;;;;;;;;;;5113727;28;20289;-65
2022/11/22 02:47:15;;;;;;;14.65;9.02;;;;;;;;;;5113986;28;20190;-66
2022/11/22 02:49:42;;;;;;;14.20;9.07;;;;;;;;;;5113945;28;20228;-66
2022/11/22 02:52:09;;;;;;;9.57;8.45;;;;;;;;;;5113970;28;20196;-65
2022/11/22 02:54:36;;;;;;;19.77;9.00;;;;;;;;;;5114065;28;20296;-66
2022/11/22 02:57:03;;;;;;;14.50;9.25;;;;;;;;;;5113798;28;20201;-66
2022/11/22 02:59:31;;;;;;;16.58;10.18;;;;;;;;;;5113601;28;20197;-65
2022/11/22 03:01:59;;;;;;;17.70;9.40;;;;;;;;;;5113873;28;20203;-65
2022/11/22 03:04:26;;;;;;;17.67;8.73;;;;;;;;;;5114240;28;20194;-64
2022/11/22 03:06:55;;;;;;;14.90;9.35;;;;;;;;;;5113407;28;20191;-65
2022/11/22 03:09:22;;;;;;;13.57;8.52;;;;;;;;;;5113661;28;20578;-65
2022/11/22 03:11:49;;;;;;;11.57;9.02;;;;;;;;;;5113678;28;20660;-65
2022/11/22 03:14:16;;;;;;;17.75;8.40;;;;;;;;;;5114326;28;20529;-65
2022/11/22 03:16:44;;;;;;;16.00;9.32;;;;;;;;;;5113761;28;20198;-66
2022/11/22 03:19:13;;;;;;;11.18;8.05;;;;;;;;;;5113685;28;20207;-66
2022/11/22 03:21:41;;;;;;;12.38;7.97;;;;;;;;;;5113530;28;20205;-66
2022/11/22 03:24:08;;;;;;;12.15;8.40;;;;;;;;;;5113268;28;20281;-65
2022/11/22 03:26:36;;;;;;;11.60;8.43;;;;;;;;;;5113579;28;20200;-66
2022/11/22 03:29:03;;;;;;;10.80;8.05;;;;;;;;;;5113788;28;20223;-65
2022/11/22 03:31:30;;;;;;;12.20;8.30;;;;;;;;;;5117263;28;20198;-65
2022/11/22 03:33:57;;;;;;;15.18;8.20;;;;;;;;;;5117215;28;20205;-65
2022/11/22 03:36:26;;;;;;;10.30;7.75;;;;;;;;;;5117516;28;20290;-65
2022/11/22 03:38:53;;;;;;;14.77;7.95;;;;;;;;;;5117227;28;20202;-65
2022/11/22 03:41:20;;;;;;;11.25;7.32;;;;;;;;;;5116766;28;20217;-65
2022/11/22 03:43:47;;;;;;;14.07;8.32;;;;;;;;;;5117489;28;20285;-65
2022/11/22 03:46:15;;;;;;;9.73;7.97;;;;;;;;;;5117267;28;20194;-65
2022/11/22 03:48:43;;;;;;;14.40;8.52;;;;;;;;;;5117252;28;20230;-65
2022/11/22 03:51:10;;;;;;;12.45;8.05;;;;;;;;;;5116902;28;20192;-66
2022/11/22 03:53:39;;;;;;;11.80;8.20;;;;;;;;;;5117957;28;20231;-66
2022/11/22 03:56:06;;;;;;;11.30;8.02;;;;;;;;;;5117044;28;20200;-66
2022/11/22 03:58:34;;;;;;;10.15;8.15;;;;;;;;;;5116941;28;20200;-65
2022/11/22 04:01:01;;;;;;;15.75;9.05;;;;;;;;;;5117489;28;20197;-65
2022/11/22 04:03:28;;;;;;;11.00;7.63;;;;;;;;;;5116888;28;20194;-65
2022/11/22 04:05:55;;;;;;;12.07;7.78;;;;;;;;;;5116666;28;20744;-65
2022/11/22 04:08:23;;;;;;;11.82;7.50;;;;;;;;;;5116431;28;20302;-65
2022/11/22 04:10:52;;;;;;;9.60;7.15;;;;;;;;;;5116657;28;20298;-64
2022/11/22 04:13:20;;;;;;;12.25;8.23;;;;;;;;;;5116784;28;20528;-65
2022/11/22 04:15:46;;;;;;;14.18;8.60;;;;;;;;;;5116471;28;20202;-65
2022/11/22 04:18:14;;;;;;;12.90;7.25;;;;;;;;;;5116490;28;20563;-65
2022/11/22 04:23:26;;;;;;;11.45;7.72;;;;;;;;;;5116420;28;20175;-65
2022/11/22 04:25:54;;;;;;;12.77;8.20;;;;;;;;;;5116737;28;20192;-65
2022/11/22 04:28:23;;;;;;;11.30;7.90;;;;;;;;;;5116055;28;20204;-65
2022/11/22 04:33:35;;;;;;;10.52;8.13;;;;;;;;;;5116466;28;20180;-65
2022/11/22 04:36:03;;;;;;;10.73;7.65;;;;;;;;;;5116367;28;20218;-65
2022/11/22 04:38:30;;;;;;;14.20;7.10;;;;;;;;;;5116206;28;20206;-66
2022/11/22 04:40:58;;;;;;;14.95;7.38;;;;;;;;;;5115817;28;20203;-66
2022/11/22 04:46:11;;;;;;;9.13;6.80;;;;;;;;;;5116087;28;20178;-65
2022/11/22 04:48:39;;;;;;;14.90;7.28;;;;;;;;;;5116300;28;20236;-65
2022/11/22 04:53:52;;;;;;;15.18;8.02;;;;;;;;;;5115456;28;20587;-65
2022/11/22 04:56:20;;;;;;;16.13;7.47;;;;;;;;;;5115332;28;20201;-65
2022/11/22 04:58:50;;;;;;;11.98;7.30;;;;;;;;;;5115398;28;20204;-65
2022/11/22 05:01:17;;;;;;;12.70;7.10;;;;;;;;;;5116099;28;20191;-65
2022/11/22 05:03:44;;;;;;;12.05;6.63;;;;;;;;;;5115640;28;20204;-66
2022/11/22 05:06:13;;;;;;;9.82;6.72;;;;;;;;;;5115443;28;20195;-66
2022/11/22 05:08:40;;;;;;;22.60;6.78;;;;;;;;;;5115620;28;20218;-65
2022/11/22 05:11:07;;;;;;;13.50;6.75;;;;;;;;;;5115699;28;20196;-65
2022/11/22 05:13:37;;;;;;;13.02;6.85;;;;;;;;;;5115505;28;20284;-66
2022/11/22 05:16:05;;;;;;;16.05;6.40;;;;;;;;;;5115565;28;20192;-65
2022/11/22 05:18:33;;;;;;;11.02;6.20;;;;;;;;;;5115537;28;20201;-66
2022/11/22 05:21:04;;;;;;;11.38;6.38;;;;;;;;;;5115880;28;20195;-65
2022/11/22 05:26:16;;;;;;;17.50;7.65;;;;;;;;;;5094996;28;20247;-65
2022/11/22 05:28:45;;;;;;;22.67;6.35;;;;;;;;;;5094994;28;20227;-66
2022/11/22 05:31:13;;;;;;;17.17;6.65;;;;;;;;;;5094777;28;20201;-66
2022/11/22 05:33:41;;;;;;;19.40;6.10;;;;;;;;;;5094877;28;20203;-66
2022/11/22 05:36:09;;;;;;;16.05;5.90;;;;;;;;;;5094435;28;20211;-65
2022/11/22 05:38:37;;;;;;;13.27;7.25;;;;;;;;;;5094723;28;20201;-66
2022/11/22 05:41:04;;;;;;;16.38;6.47;;;;;;;;;;5094461;28;20634;-66
2022/11/22 05:43:31;;;;;;;14.77;6.00;;;;;;;;;;5094298;28;20680;-66
2022/11/22 05:46:06;;;;;;;19.02;6.05;;;;;;;;;;5094596;28;20612;-65
2022/11/22 05:48:34;;;;;;;17.52;6.47;;;;;;;;;;5094540;28;20181;-66
2022/11/22 05:51:04;;;;;;;15.80;7.22;;;;;;;;;;5094250;28;20196;-66
2022/11/22 05:53:31;;;;;;;16.60;5.85;;;;;;;;;;5094147;28;20278;-66
2022/11/22 05:55:58;;;;;;;17.20;6.10;;;;;;;;;;5112699;28;20542;-65
2022/11/22 05:58:25;;;;;;;13.52;6.38;;;;;;;;;;5114675;28;20196;-65
2022/11/22 06:00:53;;;;;;;11.80;5.55;;;;;;;;;;5114691;28;20201;-65
2022/11/22 06:03:21;;;;;;;18.95;5.80;;;;;;;;;;5114703;28;20206;-65
2022/11/22 06:05:51;;;;;;;9.00;5.80;;;;;;;;;;5114705;28;20193;-66
2022/11/22 06:08:19;;;;;;;13.43;6.57;;;;;;;;;;5115114;28;20187;-66
2022/11/22 06:10:46;;;;;;;17.88;5.07;;;;;;;;;;5114369;28;20227;-65
2022/11/22 06:13:13;;;;;;;19.13;6.70;;;;;;;;;;5114209;28;20190;-70
2022/11/22 06:15:40;;;;;;;12.75;6.45;;;;;;;;;;5114307;28;20644;-67
2022/11/22 06:18:07;;;;;;;17.55;6.28;;;;;;;;;;5114474;28;20222;-67
2022/11/22 06:20:36;;;;;;;9.52;5.40;;;;;;;;;;5114921;28;20287;-67
2022/11/22 06:23:09;;;;;;;13.50;7.07;;;;;;;;;;5114446;28;20193;-66
2022/11/22 06:25:36;;;;;;;14.55;6.68;;;;;;;;;;5114641;28;20185;-66
2022/11/22 06:28:04;;;;;;;23.77;10.10;;;;;;;;;;5114286;28;20214;-67
2022/11/22 06:30:31;;;;;;;22.30;9.90;;;;;;;;;;5114249;28;20219;-66
2022/11/22 06:32:58;;;;;;;19.73;8.00;;;;;;;;;;5114571;28;20526;-67
2022/11/22 06:35:25;;;;;;;14.60;6.18;;;;;;;;;;5113875;28;20651;-67
2022/11/22 06:37:54;;;;;;;18.58;6.95;;;;;;;;;;5114687;28;20197;-67
2022/11/22 06:40:21;;;;;;;22.30;7.05;;;;;;;;;;5114043;28;20616;-66
2022/11/22 06:42:48;;;;;;;16.13;6.07;;;;;;;;;;5113813;28;20261;-66
2022/11/22 06:45:15;;;;;;;14.48;6.80;;;;;;;;;;5113798;28;20197;-67
2022/11/22 06:47:43;;;;;;;21.45;8.10;;;;;;;;;;5113802;28;20576;-67
2022/11/22 06:50:10;;;;;;;13.07;6.15;;;;;;;;;;5113863;28;20219;-67
2022/11/22 06:52:37;;;;;;;14.38;5.88;;;;;;;;;;5114315;28;20201;-67
2022/11/22 06:55:06;;;;;;;16.45;6.35;;;;;;;;;;5113612;28;20190;-67
2022/11/22 06:57:33;;;;;;;9.65;5.90;;;;;;;;;;5114752;28;20253;-67
2022/11/22 07:00:01;;;;;;;16.65;5.50;;;;;;;;;;5113575;28;20198;-67
2022/11/22 07:02:28;;;;;;;17.52;5.85;;;;;;;;;;5113954;28;20282;-67
2022/11/22 07:04:55;;;;;;;10.23;5.93;;;;;;;;;;5116432;28;20188;-67
2022/11/22 07:07:22;;;;;;;19.73;5.95;;;;;;;;;;5120729;28;20204;-68
2022/11/22 07:09:49;;;;;;;21.70;8.23;;;;;;;;;;5120459;28;20218;-68
2022/11/22 07:12:18;;;;;;;16.63;6.28;;;;;;;;;;5120914;28;20206;-68
2022/11/22 07:14:45;;;;;;;13.55;6.15;;;;;;;;;;5120508;28;20204;-67
2022/11/22 07:17:12;;;;;;;10.23;6.80;;;;;;;;;;5120418;28;20195;-68
2022/11/22 07:19:39;;;;;;;26.40;6.20;;;;;;;;;;5120021;28;20203;-68
2022/11/22 07:22:07;;;;;;;15.20;6.18;;;;;;;;;;5120329;28;20651;-68
2022/11/22 07:24:34;;;;;;;13.45;6.18;;;;;;;;;;5120093;28;20191;-68
2022/11/22 07:27:01;;;;;;;19.08;5.70;;;;;;;;;;5120571;28;20228;-68
2022/11/22 07:29:30;;;;;;;20.38;7.13;;;;;;;;;;5120901;28;20221;-68
2022/11/22 07:31:57;;;;;;;10.60;5.75;;;;;;;;;;5120591;28;20634;-67
2022/11/22 07:34:24;;;;;;;22.25;6.70;;;;;;;;;;5120659;28;20550;-67
2022/11/22 07:36:51;;;;;;;15.05;7.20;;;;;;;;;;5120410;28;20192;-67
2022/11/22 07:39:18;;;;;;;21.38;6.75;;;;;;;;;;5120411;28;20198;-67
2022/11/22 07:41:46;;;;;;;16.58;7.30;;;;;;;;;;5120122;28;20233;-67
2022/11/22 07:44:13;;;;;;;10.63;6.15;;;;;;;;;;5120162;28;20705;-67
2022/11/22 07:46:41;;;;;;;10.65;6.40;;;;;;;;;;5120772;28;20219;-66
2022/11/22 07:49:09;;;;;;;9.88;5.65;;;;;;;;;;5119874;28;20196;-67
2022/11/22 07:51:37;;;;;;;11.65;6.15;;;;;;;;;;5120181;28;20195;-67
2022/11/22 07:54:05;;;;;;;19.13;6.35;;;;;;;;;;5120950;27;20604;-67
2022/11/22 07:56:32;;;;;;;15.48;6.68;;;;;;;;;;5120226;28;20285;-67
2022/11/22 07:58:59;;;;;;;18.73;5.88;;;;;;;;;;5120694;28;20190;-67
2022/11/22 08:01:27;;;;;;;15.45;6.88;;;;;;;;;;5120309;28;20199;-67
2022/11/22 08:03:55;;;;;;;11.88;6.22;;;;;;;;;;5120333;28;20201;-67
2022/11/22 08:06:22;;;;;;;15.10;6.03;;;;;;;;;;5120278;28;20306;-67
2022/11/22 08:08:49;;;;;;;15.05;7.65;;;;;;;;;;5120183;28;20193;-66
2022/11/22 08:11:17;;;;;;;22.17;8.13;;;;;;;;;;5119814;28;20688;-67
2022/11/22 08:13:44;;;;;;;11.88;6.72;;;;;;;;;;5120158;28;20215;-66
2022/11/22 08:16:12;;;;;;;17.52;7.43;;;;;;;;;;5118182;28;20196;-66
2022/11/22 08:18:40;;;;;;;17.98;6.65;;;;;;;;;;5116520;28;20649;-67
2022/11/22 08:21:12;;;;;;;14.70;6.35;;;;;;;;;;5116858;28;20202;-66
2022/11/22 08:23:41;;;;;;;24.45;6.55;;;;;;;;;;5116485;28;20225;-67
2022/11/22 08:26:11;;;;;;;14.95;6.45;;;;;;;;;;5116652;28;20283;-66
2022/11/22 08:28:38;;;;;;;14.05;6.18;;;;;;;;;;5117195;28;20200;-67
2022/11/22 08:31:07;;;;;;;13.23;6.03;;;;;;;;;;5116548;28;20216;-67
2022/11/22 08:33:34;;;;;;;16.90;6.80;;;;;;;;;;5116271;28;20207;-67
2022/11/22 08:36:01;;;;;;;14.80;7.05;;;;;;;;;;5116441;28;20191;-67
2022/11/22 08:38:30;;;;;;;12.60;5.43;;;;;;;;;;5116815;28;20279;-66
2022/11/22 08:40:57;;;;;;;20.17;6.13;;;;;;;;;;5116271;28;20224;-66
2022/11/22 08:43:24;;;;;;;15.98;6.28;;;;;;;;;;5116957;28;20532;-66
2022/11/22 08:45:54;;;;;;;10.75;4.95;;;;;;;;;;5115961;28;20194;-67
2022/11/22 08:48:21;;;;;;;13.65;6.50;;;;;;;;;;5116281;28;20196;-67
2022/11/22 08:50:50;;;;;;;16.42;5.75;;;;;;;;;;5115821;28;20304;-67
2022/11/22 08:53:17;;;;;;;15.07;6.10;;;;;;;;;;5116465;28;20279;-67
2022/11/22 08:55:46;;;;;;;21.70;5.97;;;;;;;;;;5115848;28;20287;-67
2022/11/22 08:58:13;;;;;;;14.25;5.45;;;;;;;;;;5115759;28;20196;-66
2022/11/22 09:00:40;;;;;;;13.95;4.72;;;;;;;;;;5116044;28;20554;-66
2022/11/22 09:03:08;;;;;;;14.15;5.22;;;;;;;;;;5115400;28;20202;-67
2022/11/22 09:05:35;;;;;;;15.20;5.30;;;;;;;;;;5115618;28;20193;-67
2022/11/22 09:08:02;;;;;;;11.85;4.93;;;;;;;;;;5116136;28;20195;-67
2022/11/22 09:10:29;;;;;;;11.85;4.88;;;;;;;;;;5115566;28;20682;-66
2022/11/22 09:12:58;;;;;;;7.15;4.43;;;;;;;;;;5115784;28;20197;-67
2022/11/22 09:15:25;;;;;;;14.38;5.25;;;;;;;;;;5115616;28;20195;-66
2022/11/22 09:17:52;;;;;;;22.40;6.32;;;;;;;;;;5115755;28;20195;-67
2022/11/22 09:20:20;;;;;;;9.20;5.03;;;;;;;;;;5115417;28;20535;-67
2022/11/22 09:22:47;;;;;;;8.35;4.80;;;;;;;;;;5115564;28;20192;-66
2022/11/22 09:25:14;;;;;;;18.48;5.75;;;;;;;;;;5115757;28;20196;-66
2022/11/22 09:27:41;;;;;;;14.57;4.43;;;;;;;;;;5115117;28;20199;-67
2022/11/22 09:30:11;;;;;;;10.98;3.97;;;;;;;;;;5115161;28;20223;-66
2022/11/22 09:32:38;;;;;;;7.53;4.13;;;;;;;;;;5115385;28;20276;-66
2022/11/22 09:35:05;;;;;;;11.98;4.45;;;;;;;;;;5115488;28;20283;-66
2022/11/22 09:37:32;;;;;;;7.80;3.47;;;;;;;;;;5115415;28;20196;-66
2022/11/22 09:40:00;;;;;;;13.13;3.30;;;;;;;;;;5114979;28;20200;-66
2022/11/22 09:42:33;;;;;;;12.10;3.30;;;;;;;;;;5114898;28;20244;-66
2022/11/22 09:45:18;;;;;;;8.50;3.10;;;;;;;;;;5115033;28;20277;-66
2022/11/22 09:47:52;;;;;;;12.38;3.90;;;;;;;;;;5101518;28;20210;-66
2022/11/22 09:50:23;;;;;;;10.20;3.50;;;;;;;;;;5115412;28;20211;-66
2022/11/22 09:52:54;;;;;;;10.50;2.90;;;;;;;;;;5115085;28;20213;-66
2022/11/22 09:55:24;;;;;;;12.57;5.00;;;;;;;;;;5115157;28;20188;-67
2022/11/22 09:57:53;;;;;;;6.13;3.47;;;;;;;;;;5114872;28;20643;-66
2022/11/22 10:00:21;;;;;;;16.58;3.50;;;;;;;;;;5114537;28;20679;-67
2022/11/22 10:02:53;;;;;;;6.35;3.33;;;;;;;;;;5114706;28;20196;-67
2022/11/22 10:05:21;;;;;;;8.43;3.78;;;;;;;;;;5114828;28;20188;-67
2022/11/22 10:07:51;;;;;;;7.53;3.08;;;;;;;;;;5114707;28;20290;-68
2022/11/22 10:10:20;;;;;;;5.53;2.85;;;;;;;;;;5114479;28;20304;-67
2022/11/22 10:12:49;;;;;;;15.27;3.20;;;;;;;;;;5114288;28;20235;-66
2022/11/22 10:15:21;;;;;;;7.57;3.10;;;;;;;;;;5114306;28;20288;-68
2022/11/22 10:17:54;;;;;;;11.13;2.58;;;;;;;;;;5114837;28;20275;-67
2022/11/22 10:20:22;;;;;;;13.20;2.67;;;;;;;;;;5114834;28;20284;-66
2022/11/22 10:22:49;;;;;;;5.95;2.58;;;;;;;;;;5114414;28;20284;-67
2022/11/22 10:25:18;;;;;;;6.97;2.75;;;;;;;;;;5114169;28;20196;-68
2022/11/22 10:27:48;;;;;;;9.43;2.55;;;;;;;;;;5114006;28;20193;-66
2022/11/22 10:30:18;;;;;;;7.80;2.57;;;;;;;;;;5115431;28;20611;-67
2022/11/22 10:32:50;;;;;;;5.40;2.25;;;;;;;;;;5113879;28;20443;-67
2022/11/22 10:35:23;;;;;;;14.40;3.10;;;;;;;;;;5114769;28;20181;-67
2022/11/22 10:37:56;;;;;;;11.50;2.93;;;;;;;;;;5114299;28;20622;-67
2022/11/22 10:40:26;;;;;;;7.90;3.05;;;;;;;;;;5113116;28;20443;-68
2022/11/22 10:43:01;;;;;;;2.20;1.70;;;;;;;;;;5114254;28;20313;-68
2022/11/22 10:45:30;;;;;;;7.78;2.50;;;;;;;;;;5113905;28;20454;-67
2022/11/22 10:48:01;;;;;;;6.13;2.60;;;;;;;;;;5114035;28;20200;-66
2022/11/22 10:50:33;;;;;;;10.05;3.20;;;;;;;;;;5113922;28;20963;-66
2022/11/22 10:53:02;;;;;;;5.20;2.20;;;;;;;;;;5113666;28;20187;-66
2022/11/22 10:55:40;;;;;;;8.45;2.10;;;;;;;;;;5113646;28;20199;-67
2022/11/22 10:58:09;;;;;;;11.23;3.20;;;;;;;;;;5113539;28;20267;-67
2022/11/22 11:00:39;;;;;;;2.53;1.80;;;;;;;;;;5113884;28;20443;-66
2022/11/22 11:03:12;;;;;;;2.35;1.88;;;;;;;;;;5113467;28;20447;-67
2022/11/22 11:05:43;;;;;;;5.80;2.17;;;;;;;;;;5113933;28;20189;-67
2022/11/22 11:08:13;;;;;;;12.00;3.03;;;;;;;;;;5113466;28;20436;-66
2022/11/22 11:10:41;;;;;;;9.30;3.08;;;;;;;;;;5113406;28;20220;-66
2022/11/22 11:13:13;;;;;;;10.98;2.42;;;;;;;;;;5113872;28;20287;-67
2022/11/22 11:15:43;;;;;;;8.27;1.92;;;;;;;;;;5113599;28;20185;-66
2022/11/22 11:18:14;;;;;;;5.20;2.63;;;;;;;;;;5113713;28;20189;-67
2022/11/22 11:20:46;;;;;;;8.40;3.20;;;;;;;;;;5114146;28;20441;-67
2022/11/22 11:23:13;;;;;;;7.60;2.80;;;;;;;;;;5113642;28;20923;-66
2022/11/22 11:25:42;;;;;;;4.03;2.53;;;;;;;;;;5113726;28;20529;-66
2022/11/22 11:28:12;;;;;;;5.68;2.55;;;;;;;;;;5113313;28;20928;-67
2022/11/22 11:30:41;;;;;;;9.17;2.77;;;;;;;;;;5113841;28;20217;-68
2022/11/22 11:33:22;;;;;;;8.27;3.40;;;;;;;;;;5113194;28;20946;-68
2022/11/22 11:35:53;;;;;;;10.30;3.53;;;;;;;;;;5113650;28;20435;-66
2022/11/22 11:38:27;;;;;;;6.80;2.55;;;;;;;;;;5113620;28;20423;-68
2022/11/22 11:40:54;;;;;;;5.53;1.87;;;;;;;;;;5113347;28;20591;-67
2022/11/22 11:43:22;;;;;;;6.53;3.13;;;;;;;;;;5113059;28;20558;-67
2022/11/22 11:45:50;;;;;;;3.70;2.00;;;;;;;;;;5113254;28;20930;-67
2022/11/22 11:48:27;;;;;;;6.65;2.33;;;;;;;;;;5113435;28;20228;-66
2022/11/22 11:51:08;;;;;;;4.83;1.97;;;;;;;;;;5114141;28;20217;-67
2022/11/22 11:53:36;;;;;;;5.38;2.20;;;;;;;;;;5117448;28;20448;-66
2022/11/22 11:56:20;;;;;;;3.90;1.90;;;;;;;;;;5117044;28;20646;-67
2022/11/22 11:58:51;;;;;;;9.65;2.55;;;;;;;;;;5116893;28;20452;-67
2022/11/22 12:01:19;;;;;;;4.27;1.80;;;;;;;;;;5117398;28;20189;-67
2022/11/22 12:03:51;;;;;;;9.33;2.43;;;;;;;;;;5116757;28;20946;-67
2022/11/22 12:06:20;;;;;;;5.70;2.55;;;;;;;;;;5117166;28;21010;-67
2022/11/22 12:08:47;;;;;;;6.33;2.23;;;;;;;;;;5117029;28;20197;-67
2022/11/22 12:11:18;;;;;;;5.27;2.13;;;;;;;;;;5116792;28;20490;-67
2022/11/22 12:13:47;;;;;;;7.43;2.23;;;;;;;;;;5117070;28;20423;-67
2022/11/22 12:16:19;;;;;;;2.85;1.92;;;;;;;;;;5117839;28;20533;-67
2022/11/22 12:18:49;;;;;;;3.33;2.20;;;;;;;;;;5116583;28;20714;-67
2022/11/22 12:21:19;;;;;;;2.63;2.00;;;;;;;;;;5116534;28;20950;-67
2022/11/22 12:23:51;;;;;;;7.28;2.20;;;;;;;;;;5116889;28;20454;-67
2022/11/22 12:26:19;;;;;;;4.50;2.05;;;;;;;;;;5116892;28;20188;-67
2022/11/22 12:28:46;;;;;;;7.10;2.67;;;;;;;;;;5116551;28;20231;-67
2022/11/22 12:31:17;;;;;;;4.43;2.27;;;;;;;;;;5116544;28;20474;-66
2022/11/22 12:33:47;;;;;;;7.63;3.10;;;;;;;;;;5116575;28;20431;-67
2022/11/22 12:36:17;;;;;;;5.70;2.17;;;;;;;;;;5116529;28;20565;-67
2022/11/22 12:38:45;;;;;;;4.60;2.00;;;;;;;;;;5116701;28;20207;-67
2022/11/22 12:41:15;;;;;;;3.58;1.85;;;;;;;;;;5116578;28;20451;-67
2022/11/22 12:43:45;;;;;;;6.20;2.13;;;;;;;;;;5116291;28;20248;-67
2022/11/22 12:46:17;;;;;;;7.13;2.30;;;;;;;;;;5116703;28;20193;-67
2022/11/22 12:48:46;;;;;;;4.45;3.00;;;;;;;;;;5115965;28;20940;-67
2022/11/22 12:51:15;;;;;;;4.07;2.30;;;;;;;;;;5116159;28;20231;-67
2022/11/22 12:53:44;;;;;;;4.78;2.00;;;;;;;;;;5116583;28;20538;-67
2022/11/22 12:56:17;;;;;;;5.70;1.90;;;;;;;;;;5115853;28;20287;-67
2022/11/22 12:58:48;;;;;;;5.20;2.43;;;;;;;;;;5116566;28;20838;-67
2022/11/22 13:01:18;;;;;;;6.10;2.50;;;;;;;;;;5116452;28;20888;-67
2022/11/22 13:03:50;;;;;;;11.60;3.03;;;;;;;;;;5114884;28;20443;-67
2022/11/22 13:06:20;;;;;;;6.33;2.13;;;;;;;;;;5115717;28;20277;-67
2022/11/22 13:08:51;;;;;;;4.90;2.00;;;;;;;;;;5115733;28;20450;-67
2022/11/22 13:11:23;;;;;;;9.05;2.15;;;;;;;;;;5116502;28;20479;-66
2022/11/22 13:13:52;;;;;;;6.00;2.00;;;;;;;;;;5115838;28;20256;-67
2022/11/22 13:16:19;;;;;;;8.23;1.93;;;;;;;;;;5115480;28;20196;-67
2022/11/22 13:18:56;;;;;;;20.07;4.63;;;;;;;;;;5115598;28;20848;-67
2022/11/22 13:21:26;;;;;;;4.80;2.13;;;;;;;;;;5115835;28;20428;-67
2022/11/22 13:24:11;;;;;;;4.13;2.13;;;;;;;;;;5115193;28;20932;-67
2022/11/22 13:26:43;;;;;;;10.07;1.70;;;;;;;;;;5115218;28;20519;-67
2022/11/22 13:29:12;;;;;;;5.03;1.80;;;;;;;;;;5115540;28;20431;-67
2022/11/22 13:31:39;;;;;;;2.40;1.50;;;;;;;;;;5115475;28;20225;-67
2022/11/22 13:34:21;;;;;;;3.80;2.00;;;;;;;;;;5115024;28;20530;-67
2022/11/22 13:36:48;;;;;;;2.50;1.70;;;;;;;;;;5115532;28;20419;-67
2022/11/22 13:39:21;;;;;;;6.00;2.20;;;;;;;;;;5115893;28;20456;-70
2022/11/22 13:42:03;;;;;;;7.83;2.07;;;;;;;;;;5115264;28;20453;-64
2022/11/22 13:44:49;;;;;;;4.73;1.80;;;;;;;;;;5112728;28;20454;-66
2022/11/22 13:47:34;;;;;;;9.63;2.77;;;;;;;;;;5114877;28;20441;-65
2022/11/22 13:50:03;;;;;;;6.23;1.70;;;;;;;;;;5115072;28;20441;-66
2022/11/22 13:52:50;;;;;;;5.17;2.00;;;;;;;;;;5115017;28;20569;-65
2022/11/22 13:55:27;;;;;;;5.27;1.70;;;;;;;;;;5114713;28;20837;-65
2022/11/22 13:57:54;;;;;;;2.87;1.80;;;;;;;;;;5115172;28;20425;-66
2022/11/22 14:00:49;;;;;;;8.45;2.05;;;;;;;;;;5114519;28;20931;-66
2022/11/22 14:03:34;;;;;;;4.03;1.73;;;;;;;;;;5114036;28;20181;-66
2022/11/22 14:06:14;;;;;;;3.35;1.75;;;;;;;;;;5114227;28;20438;-66
2022/11/22 14:08:42;;;;;;;2.25;1.70;;;;;;;;;;5114961;28;20185;-65
2022/11/22 14:11:31;;;;;;;7.03;2.08;;;;;;;;;;5114227;28;20193;-65
2022/11/22 14:14:00;;;;;;;4.85;1.98;;;;;;;;;;5107678;28;20542;-65
2022/11/22 14:16:39;;;;;;;5.20;1.97;;;;;;;;;;5114116;28;20192;-65
2022/11/22 14:19:18;;;;;;;6.43;2.13;;;;;;;;;;5114514;28;20430;-65
2022/11/22 14:21:58;;;;;;;3.80;1.75;;;;;;;;;;5114051;28;20189;-65
2022/11/22 14:24:32;;;;;;;7.05;2.38;;;;;;;;;;5114678;28;20608;-65
2022/11/22 14:27:02;;;;;;;4.43;2.00;;;;;;;;;;5114366;28;20271;-66
2022/11/22 14:29:49;;;;;;;4.10;1.70;;;;;;;;;;5114340;28;20195;-65
2022/11/22 14:32:18;;;;;;;3.10;1.73;;;;;;;;;;5114183;28;20557;-65
2022/11/22 14:35:15;;;;;;;4.88;1.80;;;;;;;;;;5114302;28;20446;-65
2022/11/22 14:37:47;;;;;;;7.88;3.30;;;;;;;;;;5031266;28;20203;-65
2022/11/22 14:40:27;;;;;;;4.70;1.98;;;;;;;;;;5097649;28;20306;-65
2022/11/22 14:42:56;;;;;;;2.53;1.47;;;;;;;;;;5114363;28;20401;-65
2022/11/22 14:45:27;;;;;;;1.70;1.60;;;;;;;;;;5114049;28;20529;-65
2022/11/22 14:47:58;;;;;;;4.07;1.77;;;;;;;;;;5114020;28;20192;-65
2022/11/22 14:50:26;;;;;;;2.75;1.73;;;;;;;;;;5114172;28;20271;-65
2022/11/22 14:52:57;;;;;;;8.90;1.90;;;;;;;;;;5113833;28;20221;-65
2022/11/22 14:55:26;;;;;;;3.20;1.50;;;;;;;;;;5113982;28;20430;-64
2022/11/22 14:57:59;;;;;;;5.00;2.27;;;;;;;;;;5113796;28;20275;-65
2022/11/22 15:00:28;;;;;;;2.13;1.50;;;;;;;;;;5113547;28;20555;-65